TimeCST,TemperatureF,Dew PointF,Humidity,Sea Level PressureIn,VisibilityMPH,Wind Direction,Wind SpeedMPH,Gust SpeedMPH,PrecipitationIn,Events,Conditions,WindDirDegrees,DateUTC
12:53 AM,10.9,8.1,88,30.40,10.0,NNW,6.9,-,N/A,,Clear,330,2011-11-17 06:53:00
1:53 AM,12.2,8.6,85,30.26,10.0,NW,3.5,-,N/A,,Clear,320,2011-11-17 07:53:00
2:53 AM,14.0,10.9,88,30.33,10.0,Calm,Calm,-,N/A,,Clear,0,2011-11-17 08:53:00
3:53 AM,12.9,10.0,88,30.32,10.0,Calm,Calm,-,N/A,,Clear,0,2011-11-17 09:53:00
4:53 AM,12.0,9.0,88,30.30,10.0,Calm,Calm,-,N/A,,Clear,0,2011-11-17 10:53:00
5:53 AM,12.0,9.0,88,30.29,10.0,Calm,Calm,-,N/A,,Clear,0,2011-11-17 11:53:00
6:53 AM,10.0,6.1,84,30.28,10.0,Calm,Calm,-,N/A,,Clear,0,2011-11-17 12:53:00
7:53 AM,12.9,9.0,84,30.26,10.0,Calm,Calm,-,N/A,,Clear,0,2011-11-17 13:53:00
8:53 AM,21.9,18.0,85,30.23,10.0,Calm,Calm,-,N/A,,Clear,0,2011-11-17 14:53:00
9:53 AM,32.0,23.0,69,30.18,10.0,Calm,Calm,-,N/A,,Clear,0,2011-11-17 15:53:00
10:53 AM,41.0,24.1,51,30.14,10.0,SSW,10.4,-,N/A,,Clear,210,2011-11-17 16:53:00
11:53 AM,48.0,24.1,39,30.08,10.0,SW,12.7,21.9,N/A,,Clear,230,2011-11-17 17:53:00
12:53 PM,51.1,23.0,33,30.02,10.0,South,15.0,19.6,N/A,,Clear,190,2011-11-17 18:53:00
1:53 PM,51.1,24.1,35,29.97,10.0,South,15.0,-,N/A,,Clear,180,2011-11-17 19:53:00
2:53 PM,52.0,24.1,34,29.94,10.0,SSW,16.1,20.7,N/A,,Clear,200,2011-11-17 20:53:00
3:53 PM,52.0,24.1,34,29.91,10.0,South,8.1,-,N/A,,Clear,180,2011-11-17 21:53:00
4:53 PM,48.0,25.0,41,29.89,10.0,South,8.1,-,N/A,,Clear,170,2011-11-17 22:53:00
5:53 PM,44.1,24.1,45,29.87,10.0,South,13.8,-,N/A,,Clear,180,2011-11-17 23:53:00
6:53 PM,43.0,24.1,47,29.86,10.0,South,13.8,-,N/A,,Clear,180,2011-11-18 00:53:00
7:53 PM,41.0,24.1,51,29.84,10.0,South,16.1,24.2,N/A,,Clear,190,2011-11-18 01:53:00
8:53 PM,39.0,23.0,53,29.81,10.0,South,16.1,-,N/A,,Clear,190,2011-11-18 02:53:00
9:53 PM,41.0,21.9,47,29.78,10.0,SSW,12.7,-,N/A,,Clear,200,2011-11-18 03:53:00
10:53 PM,37.0,21.9,54,29.76,10.0,SW,9.2,-,N/A,,Clear,230,2011-11-18 04:53:00
11:53 PM,34.0,21.0,59,29.74,10.0,West,3.5,-,N/A,,Clear,260,2011-11-18 05:53:00